Time;durP1;ratioP1;P1;durP2;ratioP2;P2;SDS_P1;SDS_P2;PMS_P1;PMS_P2;Temp;Humidity;BMP_temperature;BMP_pressure;BME280_temperature;BME280_humidity;BME280_pressure;Samples;Min_cycle;Max_cycle;Signal;HPM_P1;HPM_P2
2022/06/01 00:00:29;;;;;;;25.88;23.08;;;10.50;99.90;;;;;;4978511;28;20030;-85
2022/06/01 00:02:55;;;;;;;28.95;24.35;;;10.50;99.90;;;;;;4969190;28;20061;-85
2022/06/01 00:05:21;;;;;;;27.90;22.60;;;10.50;99.90;;;;;;4963772;28;20031;-83
2022/06/01 00:07:47;;;;;;;27.05;23.13;;;10.50;99.90;;;;;;4976205;28;21913;-85
2022/06/01 00:10:13;;;;;;;27.73;23.25;;;10.40;99.90;;;;;;4970338;28;20387;-85
2022/06/01 00:12:39;;;;;;;26.95;23.25;;;10.40;99.90;;;;;;4975620;28;20058;-85
2022/06/01 00:15:06;;;;;;;26.63;22.90;;;10.40;99.90;;;;;;4963774;28;20034;-85
2022/06/01 00:17:32;;;;;;;27.13;23.23;;;10.50;99.90;;;;;;4960853;28;20068;-85
2022/06/01 00:19:57;;;;;;;27.52;22.92;;;10.40;99.90;;;;;;4977787;28;20622;-84
2022/06/01 00:22:23;;;;;;;29.27;22.33;;;10.40;99.90;;;;;;4974685;28;20553;-84
2022/06/01 00:24:49;;;;;;;24.77;22.13;;;10.40;99.90;;;;;;4976461;28;20029;-84
2022/06/01 00:27:16;;;;;;;26.13;21.90;;;10.40;99.90;;;;;;4974788;28;20039;-84
2022/06/01 00:29:42;;;;;;;28.17;22.65;;;10.40;99.90;;;;;;4969728;28;20030;-84
2022/06/01 00:32:11;;;;;;;24.88;22.00;;;10.40;99.90;;;;;;4975515;28;20038;-85
2022/06/01 00:34:37;;;;;;;26.60;22.23;;;10.40;99.90;;;;;;4978059;28;20018;-85
2022/06/01 00:37:02;;;;;;;25.70;22.60;;;10.40;99.90;;;;;;4974472;28;20029;-84
2022/06/01 00:39:28;;;;;;;25.88;23.02;;;10.40;99.90;;;;;;4977639;28;20022;-84
2022/06/01 00:41:54;;;;;;;26.48;22.83;;;10.40;99.90;;;;;;4994616;28;20022;-84
2022/06/01 00:44:20;;;;;;;26.45;22.15;;;10.30;99.90;;;;;;4977778;28;20158;-85
2022/06/01 00:46:45;;;;;;;27.70;23.60;;;10.30;99.90;;;;;;4987412;28;20081;-85
2022/06/01 00:49:18;;;;;;;29.08;23.10;;;10.30;99.90;;;;;;4977248;28;20383;-85
2022/06/01 00:51:44;;;;;;;29.98;22.55;;;10.30;99.90;;;;;;4992725;28;20042;-85
2022/06/01 00:54:11;;;;;;;27.02;22.60;;;10.30;99.90;;;;;;4989156;28;20546;-84
2022/06/01 00:56:42;;;;;;;27.00;22.23;;;10.40;99.90;;;;;;4971924;28;20031;-85
2022/06/01 00:59:13;;;;;;;25.75;22.35;;;10.40;99.90;;;;;;4994158;28;20049;-84
2022/06/01 01:01:39;;;;;;;26.85;23.63;;;10.40;99.90;;;;;;4975992;28;20022;-85
2022/06/01 01:04:05;;;;;;;27.98;24.63;;;10.40;99.90;;;;;;4977147;28;20031;-85
2022/06/01 01:06:42;;;;;;;28.52;24.35;;;10.50;99.90;;;;;;4973817;28;20183;-85
2022/06/01 01:09:09;;;;;;;27.50;22.52;;;10.50;99.90;;;;;;4981603;28;20375;-85
2022/06/01 01:11:44;;;;;;;24.38;20.75;;;10.60;99.90;;;;;;4981895;28;20037;-85
2022/06/01 01:14:12;;;;;;;23.63;20.35;;;10.60;99.90;;;;;;4971064;28;20042;-85
2022/06/01 01:16:39;;;;;;;21.88;18.83;;;10.70;99.90;;;;;;4970450;28;20033;-85
2022/06/01 01:19:16;;;;;;;19.05;16.02;;;10.70;99.90;;;;;;4969758;28;20038;-85
2022/06/01 01:21:48;;;;;;;20.42;15.60;;;10.80;99.90;;;;;;4968150;28;20033;-85
2022/06/01 01:24:42;;;;;;;18.63;15.25;;;10.80;99.90;;;;;;4962053;28;20125;-85
2022/06/01 01:27:08;;;;;;;17.95;15.82;;;10.80;99.90;;;;;;4973139;28;20037;-85
2022/06/01 01:29:40;;;;;;;19.88;17.35;;;10.80;99.90;;;;;;4972806;28;20031;-85
2022/06/01 01:32:08;;;;;;;23.38;19.38;;;10.80;99.90;;;;;;4957950;28;20121;-85
2022/06/01 01:34:36;;;;;;;20.10;16.88;;;10.80;99.90;;;;;;4976595;28;20030;-84
2022/06/01 01:37:07;;;;;;;20.45;17.27;;;10.80;99.90;;;;;;4967864;28;20026;-85
2022/06/01 01:39:35;;;;;;;20.13;17.10;;;10.90;99.90;;;;;;4969626;28;20022;-85
2022/06/01 01:42:01;;;;;;;20.38;16.95;;;10.80;99.90;;;;;;4958825;28;20035;-84
2022/06/01 01:44:41;;;;;;;19.45;16.20;;;10.80;99.90;;;;;;4973137;28;20034;-84
2022/06/01 01:47:07;;;;;;;20.17;15.95;;;10.90;99.90;;;;;;4960307;28;20038;-84
2022/06/01 01:49:34;;;;;;;17.35;15.45;;;10.80;99.90;;;;;;4975650;28;20027;-85
2022/06/01 01:52:04;;;;;;;17.35;14.98;;;10.80;99.90;;;;;;4968660;28;20046;-85
2022/06/01 01:54:51;;;;;;;18.17;16.20;;;10.90;99.90;;;;;;4976565;28;20033;-84
2022/06/01 01:57:50;;;;;;;20.17;17.25;;;10.90;99.90;;;;;;4969743;28;20097;-85
2022/06/01 02:00:22;;;;;;;18.73;16.20;;;10.80;99.90;;;;;;4986266;28;20049;-85
2022/06/01 02:03:27;;;;;;;22.88;16.63;;;10.80;99.90;;;;;;4975275;28;20026;-85
2022/06/01 02:06:07;;;;;;;17.13;14.57;;;10.80;99.90;;;;;;4918715;28;20396;-84
2022/06/01 02:08:46;;;;;;;17.67;14.48;;;10.80;99.90;;;;;;4963808;28;20101;-84
2022/06/01 02:14:26;;;;;;;14.50;12.45;;;10.80;99.90;;;;;;4981110;28;20037;-84
2022/06/01 02:17:05;;;;;;;14.80;11.73;;;10.80;99.90;;;;;;4986605;28;20058;-85
2022/06/01 02:19:42;;;;;;;13.30;10.57;;;10.80;99.90;;;;;;4985448;28;20022;-84
2022/06/01 02:22:10;;;;;;;13.70;11.00;;;10.80;99.90;;;;;;4974574;28;20057;-84
2022/06/01 02:24:37;;;;;;;14.65;11.30;;;10.80;99.90;;;;;;4974163;28;20053;-84
2022/06/01 02:27:02;;;;;;;14.60;10.63;;;10.70;99.90;;;;;;4968952;28;20026;-85
2022/06/01 02:29:43;;;;;;;13.77;10.75;;;10.70;99.90;;;;;;4992410;28;20026;-85
2022/06/01 02:32:11;;;;;;;15.95;10.45;;;10.80;99.90;;;;;;4974058;28;20081;-85
2022/06/01 02:34:37;;;;;;;12.98;10.30;;;10.70;99.90;;;;;;4974282;28;20057;-84
2022/06/01 02:37:06;;;;;;;13.88;9.90;;;10.80;99.90;;;;;;4965012;28;20081;-84
2022/06/01 02:39:33;;;;;;;13.35;9.95;;;10.80;99.90;;;;;;4965621;28;20034;-84
2022/06/01 02:42:25;;;;;;;13.85;10.40;;;10.80;99.90;;;;;;4971160;28;20019;-85
2022/06/01 02:44:56;;;;;;;17.80;11.47;;;10.80;99.90;;;;;;4974384;28;20073;-84
2022/06/01 02:47:22;;;;;;;13.05;10.77;;;10.80;99.90;;;;;;4966754;28;20286;-85
2022/06/01 02:49:48;;;;;;;15.55;11.80;;;10.80;99.90;;;;;;4962634;28;20090;-84
2022/06/01 02:52:14;;;;;;;14.18;11.25;;;10.90;99.90;;;;;;4975573;28;20129;-84
2022/06/01 02:54:40;;;;;;;14.05;11.35;;;10.80;99.90;;;;;;4965786;28;20093;-85
2022/06/01 02:57:06;;;;;;;18.10;12.52;;;10.90;99.90;;;;;;4969455;28;20058;-85
2022/06/01 02:59:32;;;;;;;19.60;15.38;;;10.80;99.90;;;;;;4968321;28;20093;-85
2022/06/01 03:01:59;;;;;;;22.98;15.35;;;10.80;99.90;;;;;;4968747;28;20080;-85
2022/06/01 03:04:26;;;;;;;23.67;19.45;;;10.80;99.90;;;;;;4972715;28;20034;-85
2022/06/01 03:06:52;;;;;;;24.08;19.77;;;10.70;99.90;;;;;;4972094;28;20392;-86
2022/06/01 03:09:18;;;;;;;26.98;21.30;;;10.70;99.90;;;;;;4972048;28;20041;-85
2022/06/01 03:11:44;;;;;;;26.83;21.40;;;10.50;99.90;;;;;;4991303;28;20049;-85
2022/06/01 03:14:09;;;;;;;25.70;20.63;;;10.40;99.90;;;;;;4960469;28;20031;-84
2022/06/01 03:16:35;;;;;;;24.75;21.08;;;10.40;99.90;;;;;;4973361;28;20041;-84
2022/06/01 03:19:00;;;;;;;27.50;21.98;;;10.20;99.90;;;;;;4967262;28;20116;-84
2022/06/01 03:21:26;;;;;;;29.10;22.67;;;10.20;99.90;;;;;;4975970;28;20019;-85
2022/06/01 03:23:52;;;;;;;31.17;23.73;;;10.10;99.90;;;;;;4974334;28;20037;-84
2022/06/01 03:26:17;;;;;;;36.65;26.52;;;10.10;99.90;;;;;;4974541;28;20046;-84
2022/06/01 03:28:43;;;;;;;35.42;28.10;;;10.10;99.90;;;;;;4975357;28;20482;-85
2022/06/01 03:31:08;;;;;;;38.03;30.23;;;10.10;99.90;;;;;;4973947;28;20036;-84
2022/06/01 03:33:36;;;;;;;35.17;28.48;;;10.10;99.90;;;;;;4974597;28;20034;-85
2022/06/01 03:36:06;;;;;;;38.78;29.60;;;10.00;99.90;;;;;;4971321;28;20039;-85
2022/06/01 03:38:32;;;;;;;39.10;31.08;;;10.10;99.90;;;;;;4974301;28;20042;-84
2022/06/01 03:40:58;;;;;;;40.05;30.73;;;10.00;99.90;;;;;;4965926;28;20038;-85
2022/06/01 03:43:24;;;;;;;38.53;30.63;;;10.00;99.90;;;;;;4973208;28;20450;-84
2022/06/01 03:45:56;;;;;;;42.30;31.90;;;10.00;99.90;;;;;;4969889;28;20533;-85
2022/06/01 03:48:24;;;;;;;41.35;32.95;;;10.00;99.90;;;;;;4973229;28;20081;-84
2022/06/01 03:50:49;;;;;;;40.53;31.38;;;9.90;99.90;;;;;;4969927;28;20027;-85
2022/06/01 03:53:15;;;;;;;43.15;31.80;;;9.90;99.90;;;;;;4974038;28;20054;-85
2022/06/01 03:55:42;;;;;;;40.92;32.28;;;10.00;99.90;;;;;;4958275;28;20143;-85
2022/06/01 03:58:21;;;;;;;41.05;32.33;;;10.00;99.90;;;;;;4968872;28;20053;-84
2022/06/01 04:00:48;;;;;;;45.90;32.92;;;10.00;99.90;;;;;;4975916;28;20027;-84
2022/06/01 04:03:14;;;;;;;41.65;32.97;;;9.90;99.90;;;;;;4975192;28;20066;-85
2022/06/01 04:05:39;;;;;;;43.03;31.75;;;10.00;99.90;;;;;;4975252;28;20089;-84
2022/06/01 04:08:06;;;;;;;42.35;32.83;;;9.90;99.90;;;;;;4962573;28;20034;-85
2022/06/01 04:10:34;;;;;;;44.13;33.70;;;10.00;99.90;;;;;;4994042;28;20045;-85
2022/06/01 04:13:00;;;;;;;43.45;32.80;;;10.00;99.90;;;;;;4990257;28;20057;-86
2022/06/01 04:15:26;;;;;;;40.17;32.08;;;10.10;99.90;;;;;;4993972;28;20381;-85
2022/06/01 04:17:52;;;;;;;39.28;31.02;;;10.10;99.90;;;;;;4972998;28;20034;-84
2022/06/01 04:20:17;;;;;;;41.80;31.25;;;10.30;99.90;;;;;;4969550;28;20547;-83
2022/06/01 04:22:44;;;;;;;41.90;31.35;;;10.40;99.90;;;;;;4976094;28;20033;-84
2022/06/01 04:25:14;;;;;;;40.08;31.05;;;10.40;99.90;;;;;;4971245;28;20026;-85
2022/06/01 04:27:40;;;;;;;36.30;29.13;;;10.50;99.90;;;;;;4977320;28;20117;-86
2022/06/01 04:30:08;;;;;;;36.88;28.40;;;10.60;99.90;;;;;;4975419;28;20125;-85
2022/06/01 04:32:34;;;;;;;36.33;27.63;;;10.70;99.90;;;;;;4967622;28;20033;-85
2022/06/01 04:35:00;;;;;;;35.72;28.85;;;10.80;99.90;;;;;;4966870;28;20449;-85
2022/06/01 04:37:26;;;;;;;34.22;26.17;;;10.80;99.90;;;;;;4977171;28;20490;-85
2022/06/01 04:39:52;;;;;;;35.40;26.92;;;10.90;99.90;;;;;;4991675;28;20106;-85
2022/06/01 04:42:18;;;;;;;32.05;24.92;;;11.00;99.90;;;;;;4973490;28;20031;-85
2022/06/01 04:44:43;;;;;;;31.77;25.75;;;11.10;99.90;;;;;;4966164;28;20478;-85
2022/06/01 04:47:10;;;;;;;30.50;24.77;;;11.20;99.90;;;;;;4975430;28;20072;-85
2022/06/01 04:49:36;;;;;;;31.02;24.88;;;11.40;99.90;;;;;;4973805;28;20137;-84
2022/06/01 04:52:02;;;;;;;36.97;25.42;;;11.40;99.90;;;;;;4973400;28;20043;-85
2022/06/01 04:54:27;;;;;;;35.60;26.45;;;11.40;99.90;;;;;;4973591;28;20137;-85
2022/06/01 04:56:53;;;;;;;33.58;26.60;;;11.30;99.90;;;;;;4966168;28;20049;-85
2022/06/01 04:59:18;;;;;;;34.55;25.40;;;11.20;99.90;;;;;;4977205;28;20125;-86
2022/06/01 05:01:45;;;;;;;30.80;24.58;;;11.10;99.90;;;;;;4977666;28;20034;-85
2022/06/01 05:04:11;;;;;;;33.35;25.27;;;11.10;99.90;;;;;;4975472;28;20053;-85
2022/06/01 05:06:37;;;;;;;33.13;25.27;;;11.20;99.90;;;;;;4971619;28;20037;-85
2022/06/01 05:09:03;;;;;;;28.90;22.30;;;11.40;99.90;;;;;;4973361;28;20113;-85
2022/06/01 05:11:28;;;;;;;29.83;21.55;;;11.80;99.90;;;;;;4970438;28;20039;-85
2022/06/01 05:13:54;;;;;;;26.23;20.25;;;12.10;99.90;;;;;;4962833;28;20041;-85
2022/06/01 05:16:20;;;;;;;25.25;20.05;;;12.10;99.90;;;;;;4993214;28;21919;-85
2022/06/01 05:18:45;;;;;;;24.27;20.50;;;12.00;99.90;;;;;;4985166;28;20137;-84
2022/06/01 05:21:11;;;;;;;30.50;22.48;;;11.80;99.90;;;;;;4986186;28;20022;-84
2022/06/01 05:23:36;;;;;;;26.52;22.40;;;11.70;99.90;;;;;;4972926;28;20030;-85
2022/06/01 05:26:02;;;;;;;26.77;21.95;;;11.50;99.90;;;;;;4975749;28;20027;-85
2022/06/01 05:28:29;;;;;;;32.45;24.02;;;11.30;99.90;;;;;;4968721;28;20096;-85
2022/06/01 05:30:57;;;;;;;27.88;21.17;;;11.30;99.90;;;;;;4968678;28;20041;-84
2022/06/01 05:33:23;;;;;;;24.45;19.77;;;11.50;99.90;;;;;;4975492;28;20029;-85
2022/06/01 05:35:48;;;;;;;27.02;20.77;;;11.60;99.90;;;;;;4969987;28;20031;-85
2022/06/01 05:38:14;;;;;;;23.38;19.58;;;12.00;99.90;;;;;;4976442;28;20042;-85
2022/06/01 05:40:39;;;;;;;23.75;18.38;;;12.30;99.90;;;;;;4970083;28;20394;-84
2022/06/01 05:43:14;;;;;;;26.17;18.38;;;12.60;99.90;;;;;;4966695;28;20058;-85
2022/06/01 05:45:40;;;;;;;23.67;19.77;;;12.90;99.90;;;;;;4969284;28;20553;-86
2022/06/01 05:48:11;;;;;;;26.17;20.35;;;13.10;99.90;;;;;;4969500;28;20076;-85
2022/06/01 05:50:38;;;;;;;23.92;19.52;;;13.20;99.90;;;;;;4962875;28;20479;-85
2022/06/01 05:53:04;;;;;;;26.42;19.77;;;13.30;99.90;;;;;;4966356;28;20062;-85
2022/06/01 05:55:30;;;;;;;24.55;19.10;;;13.30;99.90;;;;;;4973770;28;20026;-83
2022/06/01 05:57:55;;;;;;;25.65;18.30;;;13.30;99.90;;;;;;4970890;28;20094;-84
2022/06/01 06:00:21;;;;;;;25.08;18.63;;;13.30;99.90;;;;;;4968507;28;20050;-85
2022/06/01 06:02:47;;;;;;;25.08;18.13;;;13.20;99.90;;;;;;4975178;28;20034;-84
2022/06/01 06:07:58;;;;;;;26.88;17.70;;;13.30;99.90;;;;;;4991997;28;20100;-85
2022/06/01 06:10:24;;;;;;;21.13;17.15;;;13.30;99.90;;;;;;4990775;28;20403;-85
2022/06/01 06:12:50;;;;;;;20.15;15.73;;;13.40;99.90;;;;;;4973538;28;20493;-85
2022/06/01 06:15:16;;;;;;;17.35;15.27;;;13.30;99.90;;;;;;4971599;28;20038;-84
2022/06/01 06:17:42;;;;;;;20.67;15.25;;;13.40;99.90;;;;;;4974714;28;20541;-84
2022/06/01 06:20:09;;;;;;;19.00;14.02;;;13.40;99.90;;;;;;4965721;28;20415;-84
2022/06/01 06:22:35;;;;;;;21.30;14.48;;;13.40;99.90;;;;;;4963998;28;20058;-84
2022/06/01 06:25:01;;;;;;;19.00;14.65;;;13.40;99.90;;;;;;4940406;28;20031;-84
2022/06/01 06:27:27;;;;;;;23.05;14.73;;;13.50;99.90;;;;;;4957064;28;20028;-84
2022/06/01 06:29:53;;;;;;;17.23;14.73;;;13.60;99.90;;;;;;4957025;28;20026;-83
2022/06/01 06:32:19;;;;;;;19.98;13.15;;;13.70;99.90;;;;;;4961996;28;20030;-83
2022/06/01 06:34:45;;;;;;;18.23;13.13;;;13.80;99.90;;;;;;4993245;28;20030;-83
2022/06/01 06:37:11;;;;;;;19.85;13.23;;;13.80;99.90;;;;;;4991854;28;20030;-83
2022/06/01 06:39:36;;;;;;;18.98;14.32;;;13.80;99.90;;;;;;4974485;28;20089;-82
2022/06/01 06:42:02;;;;;;;20.98;15.32;;;13.90;99.90;;;;;;4974752;28;20065;-83
2022/06/01 06:44:28;;;;;;;18.70;12.88;;;14.00;99.90;;;;;;4975886;28;20027;-83
2022/06/01 06:46:53;;;;;;;16.23;12.75;;;14.10;99.90;;;;;;4976777;28;20140;-83
2022/06/01 06:49:19;;;;;;;15.88;11.20;;;14.10;99.90;;;;;;4969663;28;20030;-83
2022/06/01 06:51:44;;;;;;;14.88;10.77;;;14.20;99.90;;;;;;4974569;28;20104;-83
2022/06/01 06:54:10;;;;;;;15.57;10.73;;;14.20;99.90;;;;;;4975330;28;20022;-83
2022/06/01 06:56:36;;;;;;;11.65;9.25;;;14.20;99.90;;;;;;4969886;28;20045;-83
2022/06/01 06:59:03;;;;;;;11.55;10.10;;;14.20;99.90;;;;;;4958645;28;20042;-83
2022/06/01 07:01:29;;;;;;;12.07;9.68;;;14.30;99.90;;;;;;4973064;28;20398;-82
2022/06/01 07:03:55;;;;;;;13.52;9.05;;;14.40;99.90;;;;;;4975518;28;20038;-83
2022/06/01 07:06:21;;;;;;;12.02;8.60;;;14.50;99.90;;;;;;4962720;28;20026;-83
2022/06/01 07:08:50;;;;;;;11.80;8.60;;;14.60;99.90;;;;;;4956693;28;20066;-83
2022/06/01 07:11:19;;;;;;;11.70;9.60;;;14.80;99.90;;;;;;4974875;28;20022;-83
2022/06/01 07:13:47;;;;;;;16.48;9.77;;;15.00;99.90;;;;;;4969557;28;20113;-83
2022/06/01 07:16:16;;;;;;;12.05;8.65;;;15.20;99.90;;;;;;4990931;28;20082;-84
2022/06/01 07:18:44;;;;;;;10.57;7.00;;;15.30;99.90;;;;;;4975264;28;20553;-83
2022/06/01 07:21:10;;;;;;;9.95;7.45;;;15.40;99.90;;;;;;4992090;28;20026;-84
2022/06/01 07:23:37;;;;;;;11.38;7.18;;;15.30;99.90;;;;;;4969388;28;20026;-84
2022/06/01 07:26:06;;;;;;;9.32;6.85;;;15.30;99.90;;;;;;4964560;28;20602;-85
2022/06/01 07:28:32;;;;;;;10.43;6.32;;;15.20;99.90;;;;;;4973864;28;20124;-85
2022/06/01 07:30:58;;;;;;;10.63;6.38;;;15.10;99.90;;;;;;4976092;28;20432;-84
2022/06/01 07:33:25;;;;;;;7.88;6.00;;;14.90;99.90;;;;;;4962443;28;20029;-85
2022/06/01 07:35:51;;;;;;;7.68;5.15;;;14.80;99.90;;;;;;4969254;28;20441;-87
2022/06/01 07:43:44;;;;;;;7.35;3.95;;;15.10;99.90;;;;;;4979454;28;20114;-85
2022/06/01 07:46:10;;;;;;;11.90;4.50;;;15.30;99.90;;;;;;4977863;28;20054;-85
2022/06/01 07:48:36;;;;;;;5.35;3.17;;;15.40;99.90;;;;;;4994412;28;20030;-85
2022/06/01 07:51:02;;;;;;;6.28;3.38;;;15.50;99.90;;;;;;4978555;28;20023;-86
2022/06/01 07:53:27;;;;;;;4.47;2.45;;;15.70;99.90;;;;;;4978507;28;20046;-84
2022/06/01 07:55:53;;;;;;;3.78;2.78;;;15.80;99.90;;;;;;4978448;28;20097;-86
2022/06/01 07:58:19;;;;;;;5.85;3.13;;;15.90;99.90;;;;;;4973385;28;20192;-85
2022/06/01 08:00:45;;;;;;;4.55;2.58;;;16.00;99.90;;;;;;4968126;28;20066;-85
2022/06/01 08:03:12;;;;;;;10.55;3.00;;;15.90;99.90;;;;;;4976082;28;20493;-85
2022/06/01 08:05:38;;;;;;;4.82;3.10;;;15.90;99.90;;;;;;4966697;28;20029;-85
2022/06/01 08:08:03;;;;;;;4.28;3.08;;;15.90;99.90;;;;;;4959531;28;20113;-85
2022/06/01 08:10:29;;;;;;;4.25;2.78;;;15.80;99.90;;;;;;4971778;28;20019;-84
2022/06/01 08:13:06;;;;;;;4.03;2.90;;;15.80;99.90;;;;;;4975539;28;20045;-84
2022/06/01 08:15:37;;;;;;;6.18;3.38;;;15.90;99.90;;;;;;4975613;28;20402;-84
2022/06/01 08:18:04;;;;;;;6.72;3.78;;;15.80;99.90;;;;;;4970824;28;20036;-84
2022/06/01 08:20:31;;;;;;;4.60;3.38;;;15.80;99.90;;;;;;4966257;28;20022;-84
2022/06/01 08:22:58;;;;;;;5.88;3.85;;;15.80;99.90;;;;;;4974692;28;20034;-84
2022/06/01 08:25:24;;;;;;;5.78;3.03;;;15.90;99.90;;;;;;4959535;28;20471;-85
2022/06/01 08:27:50;;;;;;;5.95;3.42;;;16.10;99.90;;;;;;4989332;28;20510;-89
2022/06/01 08:30:19;;;;;;;4.38;2.95;;;16.30;99.90;;;;;;4973571;28;21017;-87
2022/06/01 08:32:45;;;;;;;5.07;3.45;;;16.40;99.90;;;;;;4976207;28;20034;-88
2022/06/01 08:35:14;;;;;;;6.15;4.20;;;16.50;99.90;;;;;;4978113;28;20029;-88
2022/06/01 08:37:41;;;;;;;4.90;3.28;;;16.60;99.90;;;;;;4978018;28;20026;-86
2022/06/01 08:40:07;;;;;;;5.13;3.67;;;16.70;99.90;;;;;;4960257;28;20031;-88
2022/06/01 08:42:33;;;;;;;4.80;2.80;;;16.70;99.90;;;;;;4963385;28;20035;-88
2022/06/01 08:45:08;;;;;;;8.57;3.75;;;16.70;99.90;;;;;;4967418;28;20085;-89
2022/06/01 08:47:37;;;;;;;6.65;3.47;;;16.60;99.90;;;;;;4961704;28;20026;-89
2022/06/01 08:50:08;;;;;;;4.38;3.38;;;16.60;99.90;;;;;;4977372;28;20110;-89
2022/06/01 08:52:33;;;;;;;5.40;2.90;;;16.60;99.90;;;;;;4977749;28;20042;-88
2022/06/01 08:54:59;;;;;;;5.18;2.60;;;16.70;99.90;;;;;;4978209;28;20029;-87
2022/06/01 08:57:28;;;;;;;4.05;2.17;;;17.10;99.90;;;;;;4975880;28;20034;-88
2022/06/01 09:00:00;;;;;;;4.75;2.70;;;17.40;99.90;;;;;;4973325;28;20030;-87
2022/06/01 09:02:41;;;;;;;;;;;17.60;99.90;;;;;;4977426;28;20018;-84
2022/06/01 09:05:19;;;;;;;5.95;2.65;;;17.70;99.90;;;;;;4988597;28;19913;-87
2022/06/01 09:07:59;;;;;;;3.75;2.60;;;17.80;99.90;;;;;;4972342;28;20030;-88
2022/06/01 09:10:58;;;;;;;3.92;2.42;;;17.80;99.90;;;;;;4968916;28;20197;-87
2022/06/01 09:13:31;;;;;;;5.03;2.67;;;17.90;99.90;;;;;;4971205;28;20035;-87
2022/06/01 09:16:02;;;;;;;3.40;2.65;;;18.10;99.90;;;;;;4969502;28;20498;-87
2022/06/01 09:18:32;;;;;;;5.45;2.65;;;18.10;99.90;;;;;;4970360;28;20503;-87
2022/06/01 09:23:43;;;;;;;3.63;2.10;;;17.90;99.90;;;;;;4991349;28;20112;-87
2022/06/01 09:26:25;;;;;;;3.95;2.60;;;17.90;99.80;;;;;;4980248;28;20031;-87
2022/06/01 09:28:55;;;;;;;3.17;2.30;;;18.00;99.50;;;;;;4973102;28;20326;-87
2022/06/01 09:31:26;;;;;;;4.45;2.03;;;18.00;99.80;;;;;;4977879;28;20114;-88
2022/06/01 09:33:51;;;;;;;3.70;1.55;;;18.20;99.30;;;;;;4967227;28;20062;-87
2022/06/01 09:36:27;;;;;;;5.57;1.20;;;18.40;98.60;;;;;;4969064;28;20050;-86
2022/06/01 09:38:56;;;;;;;3.22;1.40;;;18.40;97.50;;;;;;4974423;28;20486;-86
2022/06/01 09:41:36;;;;;;;3.30;1.38;;;18.10;97.40;;;;;;4974250;28;20027;-85
2022/06/01 09:44:10;;;;;;;4.05;1.10;;;17.90;97.50;;;;;;4976820;28;20457;-86
2022/06/01 09:46:52;;;;;;;2.13;1.10;;;17.90;97.30;;;;;;4976634;28;20092;-87
2022/06/01 09:49:36;;;;;;;3.55;0.93;;;18.00;97.30;;;;;;4971381;28;20117;-86
2022/06/01 09:52:08;;;;;;;2.80;0.70;;;18.10;96.60;;;;;;4976279;28;20138;-86
2022/06/01 09:54:37;;;;;;;1.55;0.70;;;18.20;96.00;;;;;;4976835;28;20022;-87
2022/06/01 09:57:18;;;;;;;2.75;0.70;;;18.40;95.40;;;;;;4975099;28;20049;-85
2022/06/01 10:08:16;;;;;;;4.15;2.60;;;17.40;94.60;;;;;;4984574;28;20502;-87
2022/06/01 10:11:01;;;;;;;3.55;2.13;;;16.60;96.10;;;;;;4957711;28;20030;-87
2022/06/01 10:13:38;;;;;;;4.20;1.70;;;15.80;98.00;;;;;;4967532;28;20027;-87
2022/06/01 10:16:35;;;;;;;4.25;1.10;;;15.40;99.40;;;;;;4969791;28;20141;-87
2022/06/01 10:19:03;;;;;;;3.50;1.45;;;15.20;99.90;;;;;;4973839;28;20533;-87
2022/06/01 10:21:42;;;;;;;2.47;1.20;;;15.00;99.90;;;;;;4976174;28;20026;-87
2022/06/01 10:24:12;;;;;;;3.83;1.30;;;15.00;99.90;;;;;;4957056;28;20126;-87
2022/06/01 10:26:43;;;;;;;4.05;0.90;;;15.10;99.90;;;;;;4969079;28;20030;-87
2022/06/01 10:29:15;;;;;;;2.08;0.80;;;15.30;99.90;;;;;;4975839;28;20085;-88
2022/06/01 10:31:51;;;;;;;3.90;0.90;;;15.60;99.90;;;;;;4993375;28;20069;-86
2022/06/01 10:34:53;;;;;;;4.13;1.30;;;16.00;99.90;;;;;;4965755;28;20085;-87
2022/06/01 10:37:37;;;;;;;7.03;1.20;;;16.20;99.90;;;;;;4957499;28;20034;-88
2022/06/01 10:40:06;;;;;;;2.22;1.50;;;16.50;99.90;;;;;;4975454;28;20305;-87
2022/06/01 10:45:50;;;;;;;3.20;1.52;;;16.80;99.90;;;;;;4975360;28;20029;-86
2022/06/01 10:48:33;;;;;;;4.60;2.00;;;17.10;99.90;;;;;;4975605;28;20032;-86
2022/06/01 10:51:13;;;;;;;3.70;1.85;;;17.30;99.90;;;;;;4959815;28;20121;-86
2022/06/01 10:53:59;;;;;;;2.25;1.30;;;17.50;99.90;;;;;;4970472;28;20038;-87
2022/06/01 10:56:26;;;;;;;4.00;1.73;;;17.60;99.90;;;;;;4976342;28;20474;-88
2022/06/01 10:58:56;;;;;;;3.40;1.77;;;17.60;99.90;;;;;;4976303;28;20039;-87
2022/06/01 11:01:51;;;;;;;2.90;1.77;;;17.60;99.90;;;;;;4972641;28;20015;-85
2022/06/01 11:04:22;;;;;;;2.95;2.08;;;17.80;99.90;;;;;;4963772;28;20033;-87
2022/06/01 11:07:06;;;;;;;4.15;1.73;;;18.10;99.90;;;;;;4980729;28;20029;-87
2022/06/01 11:10:00;;;;;;;3.92;2.35;;;18.50;99.90;;;;;;4983043;28;20424;-86
2022/06/01 11:12:53;;;;;;;5.80;1.90;;;18.60;99.50;;;;;;4963807;28;20506;-87
2022/06/01 11:15:34;;;;;;;;;;;18.60;99.10;;;;;;4969670;28;22177;-87
2022/06/01 11:18:22;;;;;;;2.50;1.60;;;18.50;99.20;;;;;;4975530;28;20655;-87
2022/06/01 11:21:20;;;;;;;3.80;1.77;;;18.40;99.10;;;;;;4982787;28;20029;-88
2022/06/01 11:24:11;;;;;;;3.22;2.35;;;18.40;99.10;;;;;;4969247;28;20565;-88
2022/06/01 11:27:12;;;;;;;3.22;2.00;;;18.30;99.00;;;;;;4982992;28;20029;-87
2022/06/01 11:30:00;;;;;;;2.30;1.55;;;18.20;99.10;;;;;;4953288;28;20030;-87
2022/06/01 11:32:42;;;;;;;2.60;1.90;;;18.10;99.30;;;;;;4991750;28;20027;-85
2022/06/01 11:35:20;;;;;;;4.35;2.05;;;18.00;99.30;;;;;;4981970;28;20139;-87
2022/06/01 11:38:04;;;;;;;4.88;2.80;;;18.00;99.40;;;;;;4998523;28;20101;-87
2022/06/01 11:40:56;;;;;;;3.00;2.55;;;18.00;98.90;;;;;;4969089;28;20030;-87
2022/06/01 11:43:28;;;;;;;3.78;2.55;;;17.80;98.80;;;;;;4997671;28;20014;-87
2022/06/01 11:46:13;;;;;;;3.53;2.00;;;17.80;99.00;;;;;;4981390;28;20066;-86
2022/06/01 11:48:50;;;;;;;3.78;2.30;;;17.90;98.60;;;;;;4971955;28;20026;-87
2022/06/01 11:51:40;;;;;;;4.00;2.22;;;18.00;98.90;;;;;;4987334;28;20030;-87
2022/06/01 11:54:30;;;;;;;4.30;2.40;;;18.00;98.80;;;;;;4980054;28;20092;-87
2022/06/01 11:57:24;;;;;;;3.33;2.05;;;18.10;98.60;;;;;;4974769;28;20066;-87
2022/06/01 11:59:54;;;;;;;3.63;1.77;;;18.10;98.30;;;;;;4979492;28;20034;-87
2022/06/01 12:02:50;;;;;;;2.90;2.47;;;18.10;97.40;;;;;;4975029;28;20038;-87
2022/06/01 12:05:28;;;;;;;4.78;1.77;;;18.00;97.10;;;;;;4982492;28;20040;-87
2022/06/01 12:08:16;;;;;;;3.25;1.25;;;17.90;97.60;;;;;;4978643;28;20085;-87
2022/06/01 12:10:54;;;;;;;1.35;0.60;;;17.90;97.10;;;;;;4982222;28;20100;-87
2022/06/01 12:13:26;;;;;;;0.95;0.35;;;17.80;96.50;;;;;;4998922;28;20022;-87
2022/06/01 12:16:19;;;;;;;0.55;0.30;;;17.80;96.00;;;;;;4976016;28;20038;-87
2022/06/01 12:19:06;;;;;;;0.65;0.20;;;17.70;95.00;;;;;;4977176;28;20130;-87
2022/06/01 12:22:00;;;;;;;2.33;0.10;;;17.70;94.20;;;;;;4975185;28;20034;-85
2022/06/01 12:30:13;;;;;;;1.10;0.20;;;18.30;92.10;;;;;;4994583;28;20046;-86
2022/06/01 12:33:00;;;;;;;0.80;0.20;;;18.30;91.50;;;;;;4961450;28;20129;-87
2022/06/01 12:35:32;;;;;;;1.48;0.30;;;18.40;91.60;;;;;;4972448;28;20499;-86
2022/06/01 12:38:08;;;;;;;2.22;0.30;;;18.40;91.00;;;;;;4989891;28;20081;-87
2022/06/01 12:40:34;;;;;;;1.08;0.52;;;18.40;90.50;;;;;;4975032;28;20075;-86
2022/06/01 12:43:02;;;;;;;1.52;0.20;;;18.30;90.40;;;;;;4974006;28;20022;-87
2022/06/01 12:45:38;;;;;;;0.75;0.20;;;18.20;90.10;;;;;;4986710;28;20517;-87
2022/06/01 12:48:19;;;;;;;1.08;0.30;;;18.20;90.10;;;;;;4974541;28;20034;-88
2022/06/01 12:50:58;;;;;;;0.80;0.20;;;18.20;89.50;;;;;;4992852;28;20026;-88
2022/06/01 12:53:51;;;;;;;0.90;0.30;;;18.30;87.70;;;;;;4970738;28;20514;-88
2022/06/01 12:56:26;;;;;;;1.80;0.30;;;18.40;87.90;;;;;;4981253;28;20041;-85
2022/06/01 12:58:53;;;;;;;0.30;0.20;;;18.70;87.90;;;;;;4971063;28;20566;-88
2022/06/01 13:01:20;;;;;;;0.45;0.17;;;18.80;87.30;;;;;;4985354;28;20094;-86
2022/06/01 13:03:55;;;;;;;2.03;0.25;;;19.00;86.50;;;;;;4972587;28;20441;-86
2022/06/01 13:06:23;;;;;;;1.05;0.22;;;19.10;85.40;;;;;;4977076;28;20035;-88
2022/06/01 13:09:09;;;;;;;1.73;0.20;;;19.10;83.80;;;;;;4994159;28;20029;-85
2022/06/01 13:11:36;;;;;;;2.40;0.20;;;19.20;83.00;;;;;;4977863;28;20034;-86
2022/06/01 13:14:05;;;;;;;0.77;0.10;;;19.30;81.50;;;;;;4976784;28;20069;-87
2022/06/01 13:16:38;;;;;;;0.95;0.10;;;19.20;78.40;;;;;;4977618;28;20478;-87
2022/06/01 13:19:25;;;;;;;0.52;0.20;;;19.10;77.50;;;;;;4974539;28;20030;-87
2022/06/01 13:21:54;;;;;;;0.30;0.10;;;18.90;77.20;;;;;;4968650;28;20402;-85
2022/06/01 13:24:21;;;;;;;0.30;0.20;;;18.90;78.30;;;;;;4968294;28;20025;-87
2022/06/01 13:26:52;;;;;;;1.70;0.20;;;18.90;78.40;;;;;;4963445;28;20027;-87